Airport View

Enter ICAO identifier to see the current METAR for that AWOS.

KFNL for example

KS71 020410Z AUTO 00000KT 10SM 16/04 A2982

2 Sep 2014 04:13

Frequency: 118.35

Phone: 406-357-3453

Other Area AWOS: KHVR - CWEH - CWOE - CWVP

TAF KHVR 012320Z 0200/0224 26016KT P6SM SCT100 FM020400 25010KT P6SM SKC FM021000 25010KT P6SM BKN250